createdAt,value
2023-04-06T00:02:04.127Z,13.90
2023-04-06T00:04:31.744Z,17.13
2023-04-06T00:06:59.287Z,18.98
2023-04-06T00:09:28.210Z,18.15
2023-04-06T00:11:56.392Z,16.63
2023-04-06T00:14:23.873Z,16.73
2023-04-06T00:16:51.906Z,21.60
2023-04-06T00:19:19.396Z,19.55
2023-04-06T00:21:47.142Z,18.85
2023-04-06T00:24:14.705Z,22.10
2023-04-06T00:26:43.555Z,19.83
2023-04-06T00:29:11.256Z,21.42
2023-04-06T00:31:38.956Z,18.65
2023-04-06T00:34:07.822Z,18.08
2023-04-06T00:36:35.387Z,20.83
2023-04-06T00:39:02.965Z,15.38
2023-04-06T00:41:31.474Z,18.23
2023-04-06T00:44:00.444Z,19.23
2023-04-06T00:46:28.136Z,17.38
2023-04-06T00:48:55.687Z,18.65
2023-04-06T00:51:23.196Z,25.77
2023-04-06T00:53:50.763Z,16.88
2023-04-06T00:56:18.362Z,18.55
2023-04-06T00:58:45.996Z,21.75
2023-04-06T01:01:16.344Z,18.17
2023-04-06T01:03:45.299Z,20.33
2023-04-06T01:06:12.762Z,17.50
2023-04-06T01:08:40.703Z,17.35
2023-04-06T01:11:08.191Z,18.10
2023-04-06T01:13:35.829Z,16.42
2023-04-06T01:16:04.442Z,22.60
2023-04-06T01:18:33.352Z,19.42
2023-04-06T01:21:00.840Z,20.50
2023-04-06T01:23:29.793Z,21.35
2023-04-06T01:25:57.352Z,14.77
2023-04-06T01:28:24.905Z,20.10
2023-04-06T01:30:52.389Z,19.05
2023-04-06T01:33:20.370Z,19.15
2023-04-06T01:35:47.939Z,17.17
2023-04-06T01:38:15.860Z,16.70
2023-04-06T01:40:44.684Z,22.08
2023-04-06T01:43:12.247Z,15.30
2023-04-06T01:45:39.994Z,18.85
2023-04-06T01:48:07.684Z,22.85
2023-04-06T01:50:35.206Z,17.13
2023-04-06T01:53:02.768Z,22.65
2023-04-06T01:55:30.539Z,22.58
2023-04-06T01:57:59.425Z,27.10
2023-04-06T02:00:27.065Z,17.60
2023-04-06T02:02:54.607Z,24.45
2023-04-06T02:05:22.189Z,21.67
2023-04-06T02:07:50.144Z,23.02
2023-04-06T02:10:17.681Z,28.15
2023-04-06T02:12:45.251Z,22.73
2023-04-06T02:15:14.737Z,27.92
2023-04-06T02:17:42.358Z,23.98
2023-04-06T02:20:10.221Z,24.67
2023-04-06T02:22:37.831Z,25.25
2023-04-06T02:25:06.467Z,24.98
2023-04-06T02:27:33.975Z,23.77
2023-04-06T02:30:01.526Z,23.08
2023-04-06T02:32:30.497Z,23.10
2023-04-06T02:34:58.176Z,24.15
2023-04-06T02:37:26.126Z,30.45
2023-04-06T02:39:53.649Z,23.63
2023-04-06T02:42:21.156Z,29.40
2023-04-06T02:44:48.684Z,20.90
2023-04-06T02:47:16.611Z,26.10
2023-04-06T02:49:47.438Z,19.05
2023-04-06T02:52:18.914Z,24.70
2023-04-06T02:54:46.428Z,22.67
2023-04-06T02:57:13.991Z,24.30
2023-04-06T02:59:41.657Z,22.45
2023-04-06T03:02:09.247Z,24.38
2023-04-06T03:04:36.768Z,22.92
2023-04-06T03:07:05.682Z,20.92
2023-04-06T03:09:34.412Z,26.17
2023-04-06T03:12:02.745Z,21.13
2023-04-06T03:14:30.846Z,21.85
2023-04-06T03:16:59.504Z,21.80
2023-04-06T03:19:27.036Z,24.00
2023-04-06T03:21:54.546Z,21.45
2023-04-06T03:24:23.395Z,24.63
2023-04-06T03:26:50.951Z,22.23
2023-04-06T03:29:18.508Z,24.73
2023-04-06T03:31:46.205Z,25.42
2023-04-06T03:34:13.756Z,22.50
2023-04-06T03:36:41.393Z,20.70
2023-04-06T03:39:09.527Z,27.60
2023-04-06T03:41:38.539Z,24.45
2023-04-06T03:44:07.396Z,22.35
2023-04-06T03:46:37.362Z,22.42
2023-04-06T03:49:04.884Z,23.40
2023-04-06T03:51:32.475Z,22.67
2023-04-06T03:53:59.969Z,22.30
2023-04-06T03:56:27.661Z,25.15
2023-04-06T03:58:56.794Z,22.17
2023-04-06T04:01:27.280Z,21.08
2023-04-06T04:03:55.636Z,17.90
2023-04-06T04:06:23.320Z,20.38
2023-04-06T04:08:51.120Z,21.08
2023-04-06T04:11:18.636Z,22.33
2023-04-06T04:13:46.386Z,25.98
2023-04-06T04:16:15.360Z,23.00
2023-04-06T04:18:46.493Z,21.35
2023-04-06T04:21:14.126Z,23.98
2023-04-06T04:23:41.641Z,23.13
2023-04-06T04:26:09.173Z,23.17
2023-04-06T04:28:36.725Z,21.70
2023-04-06T04:31:04.280Z,25.23
2023-04-06T04:33:33.144Z,26.92
2023-04-06T04:36:00.730Z,16.02
2023-04-06T04:38:28.241Z,18.95
2023-04-06T04:40:55.953Z,20.63
2023-04-06T04:43:23.509Z,21.25
2023-04-06T04:45:50.989Z,17.58
2023-04-06T04:48:18.498Z,20.23
2023-04-06T04:50:47.415Z,16.27
2023-04-06T04:53:14.897Z,19.10
2023-04-06T04:55:42.452Z,24.58
2023-04-06T04:58:12.057Z,21.33
2023-04-06T05:00:40.425Z,18.40
2023-04-06T05:03:08.478Z,21.55
2023-04-06T05:05:36.302Z,19.80
2023-04-06T05:08:05.539Z,25.05
2023-04-06T05:10:33.125Z,21.58
2023-04-06T05:13:02.300Z,28.33
2023-04-06T05:15:30.009Z,23.52
2023-04-06T05:17:57.600Z,22.20
2023-04-06T05:20:25.214Z,20.98
2023-04-06T05:22:52.886Z,22.20
2023-04-06T05:25:22.186Z,18.45
2023-04-06T05:27:50.389Z,20.85
2023-04-06T05:30:17.962Z,23.52
2023-04-06T05:32:45.619Z,20.67
2023-04-06T05:35:13.588Z,22.73
2023-04-06T05:37:41.731Z,19.27
2023-04-06T05:40:10.647Z,18.20
2023-04-06T05:42:40.248Z,20.58
2023-04-06T05:45:19.759Z,22.58
2023-04-06T05:47:48.481Z,16.30
2023-04-06T05:50:17.473Z,21.75
2023-04-06T05:52:47.494Z,25.67
2023-04-06T05:55:15.021Z,16.08
2023-04-06T05:57:43.891Z,19.17
2023-04-06T06:00:12.121Z,18.83
2023-04-06T06:02:40.654Z,16.17
2023-04-06T06:05:11.991Z,15.90
2023-04-06T06:07:39.560Z,23.38
2023-04-06T06:10:07.776Z,16.35
2023-04-06T06:12:35.436Z,16.65
2023-04-06T06:15:04.944Z,18.17
2023-04-06T06:17:32.546Z,13.73
2023-04-06T06:20:00.143Z,21.10
2023-04-06T06:22:27.708Z,15.85
2023-04-06T06:24:55.416Z,12.70
2023-04-06T06:27:22.934Z,13.48
2023-04-06T06:29:50.478Z,17.60
2023-04-06T06:35:11.367Z,16.52
2023-04-06T06:37:38.834Z,22.60
2023-04-06T06:40:06.943Z,17.85
2023-04-06T06:42:37.275Z,15.23
2023-04-06T06:45:05.849Z,12.68
2023-04-06T06:47:34.757Z,13.20
2023-04-06T06:50:03.881Z,15.45
2023-04-06T06:52:31.573Z,13.23
2023-04-06T06:54:59.068Z,18.15
2023-04-06T06:57:26.627Z,21.35
2023-04-06T06:59:54.282Z,15.98
2023-04-06T07:02:21.872Z,10.90
2023-04-06T07:04:51.566Z,15.43
2023-04-06T07:07:19.193Z,14.27
2023-04-06T07:09:46.968Z,14.90
2023-04-06T07:12:14.654Z,8.82
2023-04-06T07:14:42.242Z,15.80
2023-04-06T07:17:10.865Z,12.25
2023-04-06T07:19:38.504Z,12.52
2023-04-06T07:22:07.449Z,15.25
2023-04-06T07:24:35.065Z,16.45
2023-04-06T07:27:06.490Z,20.27
2023-04-06T07:29:38.016Z,14.02
2023-04-06T07:32:06.212Z,12.60
2023-04-06T07:34:34.393Z,10.05
2023-04-06T07:37:27.417Z,16.23
2023-04-06T07:39:56.767Z,19.40
2023-04-06T07:42:24.278Z,17.13
2023-04-06T07:44:52.050Z,16.27
2023-04-06T07:47:19.552Z,13.50
2023-04-06T07:49:47.339Z,16.75
2023-04-06T07:55:08.313Z,11.25
2023-04-06T07:57:37.075Z,12.40
2023-04-06T08:00:05.235Z,12.00
2023-04-06T08:02:33.483Z,16.92
2023-04-06T08:05:01.146Z,15.63
2023-04-06T08:07:28.695Z,16.52
2023-04-06T08:09:56.620Z,14.20
2023-04-06T08:12:25.502Z,15.00
2023-04-06T08:14:53.070Z,13.35
2023-04-06T08:20:13.140Z,19.77
2023-04-06T08:22:40.946Z,16.80
2023-04-06T08:25:08.640Z,19.15
2023-04-06T08:27:40.972Z,12.15
2023-04-06T08:30:09.428Z,17.50
2023-04-06T08:32:37.003Z,9.30
2023-04-06T08:35:04.629Z,16.67
2023-04-06T08:37:33.350Z,10.52
2023-04-06T08:40:00.976Z,13.70
2023-04-06T08:42:31.172Z,14.95
2023-04-06T08:45:00.171Z,15.00
2023-04-06T08:47:28.090Z,21.15
2023-04-06T08:49:56.181Z,15.27
2023-04-06T08:52:24.670Z,16.48
2023-04-06T08:54:52.209Z,11.73
2023-04-06T08:57:25.005Z,10.15
2023-04-06T08:59:53.158Z,13.20
2023-04-06T09:02:22.398Z,18.15
2023-04-06T09:10:34.653Z,13.18
2023-04-06T09:13:06.191Z,14.15
2023-04-06T09:15:33.675Z,18.13
2023-04-06T09:23:59.952Z,17.30
2023-04-06T09:26:27.928Z,12.52
2023-04-06T09:28:56.744Z,12.38
2023-04-06T09:31:25.537Z,17.33
2023-04-06T09:33:54.713Z,14.57
2023-04-06T09:36:31.205Z,13.80
2023-04-06T09:38:59.768Z,13.00
2023-04-06T09:41:29.103Z,16.85
2023-04-06T09:44:04.739Z,22.63
2023-04-06T09:46:42.981Z,9.10
2023-04-06T09:52:13.503Z,14.25
2023-04-06T09:54:42.115Z,15.55
2023-04-06T10:00:20.310Z,11.00
2023-04-06T10:02:50.987Z,12.90
2023-04-06T10:08:14.293Z,15.23
2023-04-06T10:10:41.816Z,10.57
2023-04-06T10:13:12.076Z,17.55
2023-04-06T10:15:40.100Z,13.63
2023-04-06T10:18:08.548Z,9.88
2023-04-06T10:20:41.158Z,15.27
2023-04-06T10:23:15.366Z,10.40
2023-04-06T10:28:11.124Z,15.63
2023-04-06T10:30:44.150Z,18.70
2023-04-06T10:33:39.707Z,15.80
2023-04-06T10:42:50.737Z,19.50
2023-04-06T10:45:21.988Z,16.35
2023-04-06T10:47:49.572Z,13.70
2023-04-06T10:50:17.675Z,13.15
2023-04-06T10:52:48.089Z,13.00
2023-04-06T10:55:16.637Z,19.35
2023-04-06T10:57:44.394Z,18.00
2023-04-06T11:04:00.897Z,18.52
2023-04-06T11:06:54.964Z,19.00
2023-04-06T11:13:06.784Z,26.85
2023-04-06T11:15:59.593Z,26.70
2023-04-06T11:22:09.860Z,19.45
2023-04-06T11:24:38.915Z,14.25
2023-04-06T11:27:06.440Z,12.88
2023-04-06T11:29:36.638Z,15.32
2023-04-06T11:32:04.841Z,11.95
2023-04-06T11:34:56.716Z,10.45
2023-04-06T11:37:52.702Z,11.63
2023-04-06T11:40:25.816Z,11.88
2023-04-06T11:42:56.411Z,9.95
2023-04-06T11:45:24.440Z,12.02
2023-04-06T11:47:57.705Z,14.73
2023-04-06T11:50:25.730Z,15.88
2023-04-06T11:53:00.522Z,15.38
2023-04-06T11:55:30.481Z,14.60
2023-04-06T11:57:59.810Z,14.15
2023-04-06T12:06:11.280Z,15.30
2023-04-06T12:08:38.940Z,14.55
2023-04-06T12:11:08.031Z,15.93
2023-04-06T12:19:46.056Z,17.25
2023-04-06T12:22:13.651Z,18.92
2023-04-06T12:24:41.242Z,15.13
2023-04-06T12:27:12.447Z,19.02
2023-04-06T12:29:40.165Z,15.52
2023-04-06T12:32:08.101Z,13.48
2023-04-06T12:34:35.909Z,15.05
2023-04-06T12:37:03.592Z,13.95
2023-04-06T12:39:31.159Z,11.82
2023-04-06T12:41:58.841Z,17.00
2023-04-06T12:44:27.823Z,12.65
2023-04-06T12:46:56.540Z,15.07
2023-04-06T12:49:24.230Z,14.23
2023-04-06T12:51:51.837Z,15.20
2023-04-06T12:54:19.459Z,10.50
2023-04-06T12:56:51.364Z,11.80
2023-04-06T12:59:22.513Z,10.57
2023-04-06T13:01:52.795Z,12.00
2023-04-06T13:04:20.447Z,13.82
2023-04-06T13:06:48.040Z,7.18
2023-04-06T13:09:15.731Z,9.25
2023-04-06T13:11:43.504Z,9.32
2023-04-06T13:14:11.277Z,12.02
2023-04-06T13:16:38.883Z,8.60
2023-04-06T13:19:07.778Z,8.82
2023-04-06T13:21:37.830Z,9.98
2023-04-06T13:24:06.145Z,11.45
2023-04-06T13:26:33.718Z,10.93
2023-04-06T13:29:01.822Z,12.95
2023-04-06T13:31:29.451Z,11.98
2023-04-06T13:33:57.020Z,11.93
2023-04-06T13:36:26.160Z,11.65
2023-04-06T13:38:57.352Z,13.45
2023-04-06T13:41:26.085Z,15.98
2023-04-06T13:43:56.451Z,16.55
2023-04-06T13:46:27.067Z,17.27
2023-04-06T13:48:57.250Z,13.68
2023-04-06T13:51:27.898Z,14.70
2023-04-06T13:53:56.153Z,14.75
2023-04-06T13:56:23.923Z,11.40
2023-04-06T13:58:51.703Z,18.75
2023-04-06T14:01:19.699Z,13.70
2023-04-06T14:03:48.825Z,14.45
2023-04-06T14:08:50.468Z,13.68
2023-04-06T14:17:01.537Z,13.35
2023-04-06T14:19:32.426Z,14.75
2023-04-06T14:24:58.210Z,15.63
2023-04-06T14:27:25.848Z,11.48
2023-04-06T14:29:53.928Z,14.00
2023-04-06T14:32:22.069Z,11.07
2023-04-06T14:34:49.661Z,18.80
2023-04-06T14:37:18.498Z,18.10
2023-04-06T14:39:46.157Z,16.92
2023-04-06T14:42:15.033Z,15.18
2023-04-06T14:44:43.912Z,13.82
2023-04-06T14:47:11.805Z,20.38
2023-04-06T14:49:39.448Z,13.10
2023-04-06T14:52:07.077Z,18.20
2023-04-06T15:00:20.969Z,22.08
2023-04-06T15:02:49.204Z,17.65
2023-04-06T15:05:17.701Z,19.83
2023-04-06T15:07:45.391Z,19.77
2023-04-06T15:10:13.013Z,22.63
2023-04-06T15:12:41.923Z,16.05
2023-04-06T15:15:11.634Z,17.63
2023-04-06T15:17:39.133Z,25.77
2023-04-06T15:20:07.783Z,16.38
2023-04-06T15:22:35.535Z,19.73
2023-04-06T15:25:03.161Z,23.77
2023-04-06T15:30:31.769Z,23.85
2023-04-06T15:33:01.583Z,25.58
2023-04-06T15:35:29.822Z,18.00
2023-04-06T15:47:10.002Z,28.85
2023-04-06T15:49:43.454Z,20.83
2023-04-06T16:03:59.449Z,19.50
2023-04-06T16:06:34.474Z,23.02
2023-04-06T16:09:02.588Z,22.52
2023-04-06T16:11:32.607Z,26.02
2023-04-06T16:14:06.248Z,23.02
2023-04-06T16:16:33.950Z,27.90
2023-04-06T16:19:03.230Z,22.85
2023-04-06T16:21:38.400Z,27.55
2023-04-06T16:24:30.886Z,26.65
2023-04-06T16:27:00.857Z,22.02
2023-04-06T16:29:31.860Z,22.60
2023-04-06T16:34:55.725Z,24.13
2023-04-06T16:37:24.686Z,24.33
2023-04-06T16:46:02.397Z,25.55
2023-04-06T16:48:54.032Z,19.80
2023-04-06T16:51:50.888Z,21.08
2023-04-06T16:54:20.116Z,19.90
2023-04-06T16:56:47.808Z,23.45
2023-04-06T16:59:15.459Z,27.65
2023-04-06T17:01:43.545Z,21.13
2023-04-06T17:07:02.340Z,20.58
2023-04-06T17:12:03.009Z,20.25
2023-04-06T17:14:30.543Z,20.73
2023-04-06T17:16:58.094Z,16.35
2023-04-06T17:19:27.081Z,18.50
2023-04-06T17:21:55.354Z,14.65
2023-04-06T17:24:23.036Z,20.35
2023-04-06T17:26:50.607Z,23.73
2023-04-06T17:35:05.365Z,34.03
2023-04-06T17:37:34.858Z,29.75
2023-04-06T17:40:02.428Z,31.45
2023-04-06T17:45:24.066Z,31.10
2023-04-06T17:47:51.952Z,32.50
2023-04-06T17:50:21.055Z,37.42
2023-04-06T17:52:50.778Z,33.80
2023-04-06T17:55:20.692Z,27.30
2023-04-06T17:57:51.717Z,32.42
2023-04-06T18:00:24.300Z,28.27
2023-04-06T18:02:53.607Z,25.83
2023-04-06T18:05:21.452Z,22.10
2023-04-06T18:10:48.505Z,16.88
2023-04-06T18:13:16.366Z,16.00
2023-04-06T18:15:43.963Z,17.58
2023-04-06T18:18:13.410Z,17.75
2023-04-06T18:20:41.616Z,17.63
2023-04-06T18:23:09.294Z,20.05
2023-04-06T18:25:45.453Z,18.55
2023-04-06T18:28:13.169Z,18.13
2023-04-06T18:30:48.127Z,21.70
2023-04-06T18:33:17.044Z,16.17
2023-04-06T18:35:44.699Z,16.70
2023-04-06T18:38:14.374Z,16.42
2023-04-06T18:40:42.397Z,16.55
2023-04-06T18:43:11.135Z,14.40
2023-04-06T18:45:39.470Z,12.27
2023-04-06T18:48:09.061Z,16.20
2023-04-06T18:50:40.175Z,19.77
2023-04-06T18:53:08.114Z,17.80
2023-04-06T18:55:36.352Z,19.27
2023-04-06T18:58:05.844Z,18.75
2023-04-06T19:00:33.480Z,19.85
2023-04-06T19:03:01.359Z,18.50
2023-04-06T19:05:29.027Z,18.65
2023-04-06T19:07:57.934Z,15.82
2023-04-06T19:10:29.545Z,22.30
2023-04-06T19:12:58.606Z,19.42
2023-04-06T19:15:26.206Z,16.67
2023-04-06T19:17:54.264Z,14.32
2023-04-06T19:20:24.903Z,17.80
2023-04-06T19:22:52.613Z,15.77
2023-04-06T19:25:21.633Z,18.63
2023-04-06T19:27:49.614Z,14.50
2023-04-06T19:30:20.180Z,16.13
2023-04-06T19:32:47.698Z,18.60
2023-04-06T19:35:15.544Z,17.40
2023-04-06T19:37:44.271Z,32.47
2023-04-06T19:40:11.945Z,35.40
2023-04-06T19:45:41.672Z,41.70
2023-04-06T19:48:10.998Z,43.60
2023-04-06T19:50:42.607Z,39.90
2023-04-06T19:53:10.106Z,41.72
2023-04-06T19:55:37.609Z,34.05
2023-04-06T19:58:06.468Z,33.45
2023-04-06T20:00:34.018Z,38.28
2023-04-06T20:03:01.697Z,35.97
2023-04-06T20:14:32.605Z,36.53
2023-04-06T20:17:00.839Z,37.08
2023-04-06T20:19:28.579Z,28.67
2023-04-06T20:30:32.474Z,28.70
2023-04-06T20:33:02.114Z,27.45
2023-04-06T20:35:31.103Z,24.60
2023-04-06T20:38:05.479Z,32.67
2023-04-06T20:40:35.402Z,28.95
2023-04-06T20:43:04.467Z,26.15
2023-04-06T20:45:39.033Z,26.92
2023-04-06T20:48:06.760Z,23.90
2023-04-06T20:50:34.392Z,35.53
2023-04-06T20:53:02.088Z,23.27
2023-04-06T20:55:29.643Z,30.90
2023-04-06T20:57:57.239Z,29.00
2023-04-06T21:00:25.703Z,24.65
2023-04-06T21:02:55.729Z,32.03
2023-04-06T21:05:23.682Z,28.38
2023-04-06T21:10:42.771Z,29.08
2023-04-06T21:13:10.473Z,27.88
2023-04-06T21:15:38.070Z,18.60
2023-04-06T21:18:07.246Z,15.18
2023-04-06T21:20:35.067Z,19.80
2023-04-06T21:23:02.680Z,22.75
2023-04-06T21:25:30.251Z,16.95
2023-04-06T21:27:57.863Z,12.90
2023-04-06T21:30:25.372Z,16.25
2023-04-06T21:32:53.801Z,10.27
2023-04-06T21:35:22.696Z,10.90
2023-04-06T21:37:50.205Z,12.32
2023-04-06T21:43:10.857Z,11.15
2023-04-06T21:45:38.418Z,17.80
2023-04-06T21:48:06.307Z,11.68
2023-04-06T21:50:39.759Z,12.13
2023-04-06T21:53:07.549Z,16.17
2023-04-06T21:55:35.110Z,16.75
2023-04-06T21:58:02.992Z,11.80
2023-04-06T22:00:30.589Z,15.48
2023-04-06T22:02:58.855Z,12.35
2023-04-06T22:05:26.580Z,12.88
2023-04-06T22:07:57.204Z,11.35
2023-04-06T22:10:24.802Z,16.00
2023-04-06T22:12:52.463Z,12.32
2023-04-06T22:15:20.126Z,15.02
2023-04-06T22:17:47.718Z,16.17
2023-04-06T22:23:08.400Z,12.30
2023-04-06T22:25:35.979Z,13.88
2023-04-06T22:28:03.537Z,21.25
2023-04-06T22:30:31.099Z,15.73
2023-04-06T22:32:58.614Z,20.58
2023-04-06T22:35:26.269Z,15.95
2023-04-06T22:37:54.809Z,13.13
2023-04-06T22:40:23.755Z,15.02
2023-04-06T22:42:51.337Z,9.75
2023-04-06T22:45:43.543Z,13.70
2023-04-06T22:48:12.223Z,16.65
2023-04-06T22:50:39.902Z,15.38
2023-04-06T22:53:07.552Z,10.50
2023-04-06T22:55:36.449Z,18.02
2023-04-06T22:58:04.009Z,13.70
2023-04-06T23:00:31.565Z,11.52
2023-04-06T23:02:59.452Z,11.98
2023-04-06T23:05:27.170Z,11.55
2023-04-06T23:07:54.691Z,13.20
2023-04-06T23:10:22.225Z,12.60
2023-04-06T23:12:51.166Z,11.55
2023-04-06T23:15:18.969Z,9.10
2023-04-06T23:17:46.621Z,13.52
2023-04-06T23:20:14.207Z,10.35
2023-04-06T23:22:41.741Z,10.85
2023-04-06T23:25:09.861Z,12.70
2023-04-06T23:27:37.358Z,12.57
2023-04-06T23:30:07.010Z,8.02
2023-04-06T23:32:34.598Z,12.30
2023-04-06T23:35:02.209Z,8.68
2023-04-06T23:37:29.895Z,11.23
2023-04-06T23:39:57.986Z,9.52
2023-04-06T23:42:28.818Z,11.02
2023-04-06T23:44:56.837Z,8.32
2023-04-06T23:47:25.860Z,8.80
2023-04-06T23:49:53.410Z,12.57
2023-04-06T23:52:21.043Z,10.43
2023-04-06T23:54:48.585Z,13.48
2023-04-06T23:57:16.149Z,13.20
2023-04-06T23:59:43.717Z,14.38
